Saint Gertrude, Louisiana
Current Conditions -  °F | °C
As of 1:15 AM on Friday 28 Nov 2014 (Local Time) from KHDC Reporting Station
Clear Clear  
Wind Chill: 36°   Ceiling: Unl
Heat Index: 39°   Visibility: 10mi
Dew Point: 32°   Wind: 5mph
Humidity: 75%   Direction: 50°NE
Pressure: 30.44"   Gusts: NA
Location:  30.4598°N, 90.1271°W
Report Text: KHDC 280715Z AUTO 05004KT 10SM CLR 04/00 A3044 RMK AO2
Loading
Personal Weather Stations






























Interactive Weather Map New forecast layout! Learn more

10-Day Weather Forecast

Advertisements
Track Severe Weather on mobile